createdAt,value
2022-09-25T00:01:30.285Z,11.60
2022-09-25T00:03:58.357Z,11.60
2022-09-25T00:06:30.120Z,11.50
2022-09-25T00:08:59.649Z,11.50
2022-09-25T00:11:31.052Z,11.50
2022-09-25T00:14:01.126Z,11.40
2022-09-25T00:16:32.783Z,11.30
2022-09-25T00:19:19.701Z,11.30
2022-09-25T00:21:53.609Z,11.20
2022-09-25T00:24:22.233Z,11.10
2022-09-25T00:26:50.325Z,11.10
2022-09-25T00:29:21.467Z,11.10
2022-09-25T00:31:49.549Z,11.00
2022-09-25T00:34:17.604Z,11.00
2022-09-25T00:36:45.605Z,11.00
2022-09-25T00:39:15.078Z,11.10
2022-09-25T00:41:43.292Z,11.00
2022-09-25T00:44:52.290Z,11.10
2022-09-25T00:47:29.854Z,11.00
2022-09-25T00:50:02.357Z,11.00
2022-09-25T00:52:32.517Z,10.90
2022-09-25T00:55:08.260Z,10.80
2022-09-25T00:57:40.448Z,10.80
2022-09-25T01:00:13.232Z,10.70
2022-09-25T01:02:47.267Z,10.70
2022-09-25T01:05:19.388Z,10.70
2022-09-25T01:07:52.906Z,10.80
2022-09-25T01:10:23.331Z,10.70
2022-09-25T01:12:53.866Z,10.70
2022-09-25T01:15:32.520Z,10.70
2022-09-25T01:18:16.982Z,10.60
2022-09-25T01:21:20.775Z,10.50
2022-09-25T01:24:20.053Z,10.50
2022-09-25T01:27:41.268Z,10.50
2022-09-25T01:30:14.615Z,10.60
2022-09-25T01:32:59.839Z,10.60
2022-09-25T01:35:41.075Z,10.60
2022-09-25T01:38:24.713Z,10.50
2022-09-25T01:41:03.557Z,10.40
2022-09-25T01:43:39.628Z,10.30
2022-09-25T01:46:15.075Z,10.30
2022-09-25T01:48:48.093Z,10.30
2022-09-25T01:51:22.628Z,10.20
2022-09-25T01:53:56.739Z,10.30
2022-09-25T01:56:32.690Z,10.30
2022-09-25T01:59:09.283Z,10.30
2022-09-25T02:01:43.445Z,10.30
2022-09-25T02:04:17.998Z,10.30
2022-09-25T02:06:51.748Z,10.20
2022-09-25T02:09:30.525Z,10.20
2022-09-25T02:12:05.912Z,10.10
2022-09-25T02:14:40.341Z,10.10
2022-09-25T02:17:35.057Z,10.10
2022-09-25T02:20:21.395Z,10.10
2022-09-25T02:22:54.425Z,10.00
2022-09-25T02:25:36.966Z,10.10
2022-09-25T02:28:05.374Z,10.10
2022-09-25T02:30:33.547Z,10.20
2022-09-25T02:33:03.194Z,10.20
2022-09-25T02:35:31.324Z,10.20
2022-09-25T02:38:00.347Z,10.20
2022-09-25T02:40:42.343Z,10.30
2022-09-25T02:43:26.024Z,10.30
2022-09-25T02:46:10.122Z,10.40
2022-09-25T02:48:51.472Z,10.40
2022-09-25T02:51:30.322Z,10.40
2022-09-25T02:54:18.555Z,10.40
2022-09-25T02:56:57.770Z,10.50
2022-09-25T02:59:37.303Z,10.40
2022-09-25T03:02:06.666Z,10.50
2022-09-25T03:04:39.030Z,10.40
2022-09-25T03:07:08.357Z,10.50
2022-09-25T03:09:40.327Z,10.50
2022-09-25T03:12:08.340Z,10.50
2022-09-25T03:14:36.417Z,10.50
2022-09-25T03:17:07.540Z,10.60
2022-09-25T03:19:38.230Z,10.60
2022-09-25T03:22:06.491Z,10.60
2022-09-25T03:24:34.562Z,10.50
2022-09-25T03:27:02.555Z,10.50
2022-09-25T03:29:31.054Z,10.40
2022-09-25T03:31:59.059Z,10.40
2022-09-25T03:34:27.201Z,10.40
2022-09-25T03:36:56.589Z,10.40
2022-09-25T03:39:24.723Z,10.40
2022-09-25T03:41:52.777Z,10.40
2022-09-25T03:44:20.755Z,10.50
2022-09-25T03:46:48.771Z,10.50
2022-09-25T03:49:16.755Z,10.60
2022-09-25T03:51:44.761Z,10.60
2022-09-25T03:54:14.139Z,10.60
2022-09-25T03:56:42.608Z,10.70
2022-09-25T03:59:10.634Z,10.60
2022-09-25T04:01:38.746Z,10.60
2022-09-25T04:04:06.930Z,10.60
2022-09-25T04:06:34.944Z,10.60
2022-09-25T04:09:02.942Z,10.60
2022-09-25T04:11:32.420Z,10.60
2022-09-25T04:14:00.630Z,10.60
2022-09-25T04:16:29.489Z,10.70
2022-09-25T04:18:57.783Z,10.60
2022-09-25T04:21:25.885Z,10.60
2022-09-25T04:24:11.681Z,10.70
2022-09-25T04:26:41.052Z,10.70
2022-09-25T04:29:09.094Z,10.70
2022-09-25T04:31:37.094Z,10.70
2022-09-25T04:34:04.424Z,10.70
2022-09-25T04:36:32.522Z,10.70
2022-09-25T04:39:00.545Z,10.80
2022-09-25T04:41:28.545Z,10.80
2022-09-25T04:43:57.842Z,10.80
2022-09-25T04:46:25.865Z,10.80
2022-09-25T04:48:53.874Z,10.80
2022-09-25T04:51:21.927Z,10.80
2022-09-25T04:53:49.927Z,10.80
2022-09-25T04:56:17.888Z,10.80
2022-09-25T04:58:48.073Z,10.80
2022-09-25T05:01:20.573Z,10.70
2022-09-25T05:03:50.016Z,10.80
2022-09-25T05:06:18.250Z,10.80
2022-09-25T05:08:49.308Z,10.90
2022-09-25T05:11:17.270Z,10.80
2022-09-25T05:13:47.249Z,10.80
2022-09-25T05:16:15.308Z,10.80
2022-09-25T05:18:45.807Z,10.80
2022-09-25T05:21:13.803Z,10.90
2022-09-25T05:23:41.829Z,10.90
2022-09-25T05:26:11.112Z,10.90
2022-09-25T05:28:39.184Z,10.90
2022-09-25T05:31:08.189Z,10.90
2022-09-25T05:33:37.089Z,10.90
2022-09-25T05:36:08.754Z,11.00
2022-09-25T05:38:39.201Z,11.10
2022-09-25T05:41:10.151Z,11.10
2022-09-25T05:43:42.881Z,11.10
2022-09-25T05:46:12.309Z,11.10
2022-09-25T05:48:41.136Z,11.10
2022-09-25T05:51:11.891Z,11.10
2022-09-25T05:53:39.878Z,11.10
2022-09-25T05:56:08.348Z,11.10
2022-09-25T05:58:37.194Z,11.10
2022-09-25T06:01:07.682Z,11.20
2022-09-25T06:03:36.175Z,11.20
2022-09-25T06:06:04.406Z,11.20
2022-09-25T06:08:35.507Z,11.30
2022-09-25T06:11:05.165Z,11.30
2022-09-25T06:13:34.645Z,11.30
2022-09-25T06:16:04.136Z,11.40
2022-09-25T06:18:33.428Z,11.40
2022-09-25T06:21:04.101Z,11.50
2022-09-25T06:23:33.734Z,11.60
2022-09-25T06:26:03.006Z,11.60
2022-09-25T06:28:31.750Z,11.60
2022-09-25T06:31:02.172Z,11.60
2022-09-25T06:33:31.082Z,11.70
2022-09-25T06:36:00.469Z,11.80
2022-09-25T06:38:29.007Z,11.90
2022-09-25T06:41:00.854Z,12.00
2022-09-25T06:43:31.259Z,12.00
2022-09-25T06:46:03.785Z,12.00
2022-09-25T06:48:32.827Z,12.10
2022-09-25T06:51:02.652Z,12.10
2022-09-25T06:53:31.584Z,12.10
2022-09-25T06:56:01.698Z,12.20
2022-09-25T06:58:31.328Z,12.30
2022-09-25T07:00:59.592Z,12.30
2022-09-25T07:03:44.630Z,12.40
2022-09-25T07:06:16.224Z,12.40
2022-09-25T07:08:46.264Z,12.50
2022-09-25T07:11:19.922Z,12.50
2022-09-25T07:13:49.920Z,12.50
2022-09-25T07:16:21.007Z,12.60
2022-09-25T07:18:49.507Z,12.70
2022-09-25T07:21:19.612Z,12.70
2022-09-25T07:23:49.599Z,12.70
2022-09-25T07:26:22.796Z,12.80
2022-09-25T07:28:57.578Z,12.80
2022-09-25T07:31:28.566Z,12.80
2022-09-25T07:33:56.608Z,12.90
2022-09-25T07:36:24.710Z,12.90
2022-09-25T07:38:53.929Z,12.90
2022-09-25T07:41:24.295Z,12.90
2022-09-25T07:44:06.306Z,12.90
2022-09-25T07:46:44.505Z,13.00
2022-09-25T07:49:12.999Z,13.10
2022-09-25T07:51:41.059Z,13.20
2022-09-25T07:54:09.519Z,13.40
2022-09-25T07:56:39.078Z,13.60
2022-09-25T07:59:07.326Z,13.70
2022-09-25T08:01:39.520Z,13.80
2022-09-25T08:04:10.788Z,14.00
2022-09-25T08:06:39.213Z,14.00
2022-09-25T08:09:10.606Z,14.10
2022-09-25T08:11:40.248Z,14.30
2022-09-25T08:14:08.250Z,14.40
2022-09-25T08:16:36.349Z,14.50
2022-09-25T08:19:05.001Z,14.40
2022-09-25T08:21:33.130Z,14.40
2022-09-25T08:24:01.632Z,14.50
2022-09-25T08:26:31.872Z,14.50
2022-09-25T08:29:01.366Z,14.50
2022-09-25T08:31:29.454Z,14.50
2022-09-25T08:34:06.159Z,14.70
2022-09-25T08:36:45.709Z,14.90
2022-09-25T08:39:13.693Z,14.90
2022-09-25T08:41:51.185Z,15.00
2022-09-25T08:44:29.757Z,15.00
2022-09-25T08:47:22.460Z,15.30
2022-09-25T08:50:02.039Z,15.40
2022-09-25T08:52:32.073Z,15.50
2022-09-25T08:55:00.213Z,15.70
2022-09-25T08:57:37.220Z,16.00
2022-09-25T09:00:15.066Z,16.30
2022-09-25T09:02:48.902Z,16.50
2022-09-25T09:05:26.690Z,16.60
2022-09-25T09:08:00.957Z,16.50
2022-09-25T09:10:37.121Z,16.60
2022-09-25T09:13:18.613Z,16.70
2022-09-25T09:15:55.081Z,16.80
2022-09-25T09:18:27.598Z,16.90
2022-09-25T09:20:58.133Z,17.00
2022-09-25T09:23:34.918Z,17.10
2022-09-25T09:26:05.629Z,17.30
2022-09-25T09:29:05.645Z,17.40
2022-09-25T09:31:52.175Z,17.50
2022-09-25T09:35:04.565Z,17.60
2022-09-25T09:37:50.893Z,17.40
2022-09-25T09:40:33.537Z,17.50
2022-09-25T09:45:53.054Z,17.30
2022-09-25T09:48:32.420Z,17.20
2022-09-25T09:51:10.211Z,17.00
2022-09-25T09:53:45.211Z,17.00
2022-09-25T09:56:19.501Z,16.80
2022-09-25T09:58:54.309Z,16.70
2022-09-25T10:01:42.991Z,16.60
2022-09-25T10:04:20.110Z,16.60
2022-09-25T10:06:56.106Z,16.60
2022-09-25T10:09:25.926Z,16.80
2022-09-25T10:12:04.248Z,16.90
2022-09-25T10:14:40.440Z,17.00
2022-09-25T10:17:12.582Z,17.10
2022-09-25T10:19:52.568Z,17.10
2022-09-25T10:22:25.882Z,17.20
2022-09-25T10:24:58.630Z,17.40
2022-09-25T10:27:33.684Z,17.00
2022-09-25T10:30:18.785Z,16.90
2022-09-25T10:32:58.082Z,17.00
2022-09-25T10:35:41.063Z,17.20
2022-09-25T10:38:34.328Z,17.20
2022-09-25T10:41:08.953Z,17.30
2022-09-25T10:43:51.452Z,17.20
2022-09-25T10:46:43.882Z,17.00
2022-09-25T10:49:38.815Z,17.00
2022-09-25T10:52:10.987Z,16.90
2022-09-25T10:54:44.916Z,17.00
2022-09-25T10:57:34.295Z,17.10
2022-09-25T11:00:05.493Z,17.10
2022-09-25T11:02:40.192Z,17.10
2022-09-25T11:05:18.651Z,17.30
2022-09-25T11:07:55.086Z,17.20
2022-09-25T11:10:26.680Z,17.20
2022-09-25T11:12:56.618Z,17.30
2022-09-25T11:15:28.319Z,17.40
2022-09-25T11:17:58.635Z,17.40
2022-09-25T11:20:30.536Z,17.40
2022-09-25T11:23:29.871Z,17.40
2022-09-25T11:26:09.745Z,17.40
2022-09-25T11:28:47.728Z,17.60
2022-09-25T11:31:29.483Z,17.70
2022-09-25T11:34:23.828Z,17.70
2022-09-25T11:37:01.378Z,17.60
2022-09-25T11:39:56.233Z,17.50
2022-09-25T11:42:35.263Z,17.50
2022-09-25T11:45:11.692Z,17.60
2022-09-25T11:47:49.423Z,17.60
2022-09-25T11:50:21.313Z,17.60
2022-09-25T11:53:06.029Z,17.60
2022-09-25T11:55:58.812Z,17.80
2022-09-25T11:58:57.315Z,17.90
2022-09-25T12:01:35.873Z,18.00
2022-09-25T12:04:44.712Z,18.10
2022-09-25T12:07:39.854Z,18.10
2022-09-25T12:10:24.873Z,18.10
2022-09-25T12:13:08.949Z,18.10
2022-09-25T12:16:01.184Z,18.20
2022-09-25T12:18:50.262Z,18.20
2022-09-25T12:21:34.397Z,18.10
2022-09-25T12:24:17.446Z,18.20
2022-09-25T12:27:01.132Z,18.20
2022-09-25T12:30:16.619Z,18.20
2022-09-25T12:33:05.395Z,18.20
2022-09-25T12:35:47.639Z,18.20
2022-09-25T12:38:33.428Z,18.20
2022-09-25T12:41:12.634Z,18.20
2022-09-25T12:43:51.987Z,18.30
2022-09-25T12:46:29.796Z,18.30
2022-09-25T12:49:07.834Z,18.50
2022-09-25T12:51:42.242Z,18.60
2022-09-25T12:54:24.866Z,18.60
2022-09-25T12:56:59.722Z,18.50
2022-09-25T12:59:36.274Z,18.50
2022-09-25T13:02:17.665Z,18.40
2022-09-25T13:05:03.081Z,18.50
2022-09-25T13:07:40.860Z,18.50
2022-09-25T13:10:26.362Z,18.50
2022-09-25T13:13:00.505Z,18.60
2022-09-25T13:15:35.173Z,18.50
2022-09-25T13:18:07.359Z,18.50
2022-09-25T13:20:55.915Z,18.50
2022-09-25T13:23:36.744Z,18.40
2022-09-25T13:26:14.261Z,18.50
2022-09-25T13:28:52.494Z,18.60
2022-09-25T13:31:27.242Z,18.70
2022-09-25T13:34:04.795Z,18.70
2022-09-25T13:36:48.332Z,18.80
2022-09-25T13:39:45.842Z,18.90
2022-09-25T13:42:26.498Z,18.80
2022-09-25T13:45:26.887Z,18.70
2022-09-25T13:48:04.399Z,19.00
2022-09-25T13:50:43.531Z,18.90
2022-09-25T13:53:22.102Z,19.00
2022-09-25T13:56:27.929Z,19.00
2022-09-25T13:59:42.374Z,19.10
2022-09-25T14:02:47.646Z,19.20
2022-09-25T14:05:21.547Z,19.30
2022-09-25T14:07:57.040Z,19.30
2022-09-25T14:10:25.512Z,19.40
2022-09-25T14:12:54.127Z,19.30
2022-09-25T14:15:29.395Z,19.20
2022-09-25T14:18:00.868Z,19.10
2022-09-25T14:20:39.370Z,19.00
2022-09-25T14:23:15.826Z,19.00
2022-09-25T14:25:46.787Z,19.20
2022-09-25T14:28:25.364Z,19.20
2022-09-25T14:31:15.982Z,19.30
2022-09-25T14:34:29.890Z,19.20
2022-09-25T14:37:14.107Z,19.10
2022-09-25T14:39:58.390Z,19.00
2022-09-25T14:43:02.321Z,19.10
2022-09-25T14:45:55.066Z,19.00
2022-09-25T14:48:30.013Z,18.80
2022-09-25T14:51:02.723Z,18.50
2022-09-25T14:53:37.374Z,18.30
2022-09-25T14:56:14.572Z,18.10
2022-09-25T14:58:49.508Z,18.00
2022-09-25T15:01:27.625Z,17.90
2022-09-25T15:03:59.807Z,17.90
2022-09-25T15:06:31.842Z,17.90
2022-09-25T15:09:02.802Z,17.90
2022-09-25T15:11:44.015Z,17.90
2022-09-25T15:14:16.325Z,17.70
2022-09-25T15:17:02.755Z,17.60
2022-09-25T15:19:35.774Z,17.60
2022-09-25T15:22:10.657Z,17.40
2022-09-25T15:24:46.511Z,17.30
2022-09-25T15:27:17.923Z,17.30
2022-09-25T15:29:48.894Z,17.10
2022-09-25T15:32:22.306Z,17.00
2022-09-25T15:34:50.716Z,16.90
2022-09-25T15:37:26.273Z,16.90
2022-09-25T15:39:55.615Z,16.80
2022-09-25T15:42:25.249Z,16.70
2022-09-25T15:44:54.181Z,16.70
2022-09-25T15:47:53.623Z,16.70
2022-09-25T15:50:26.840Z,16.80
2022-09-25T15:52:58.485Z,16.80
2022-09-25T15:55:31.154Z,16.80
2022-09-25T15:58:12.817Z,16.90
2022-09-25T16:01:12.466Z,16.80
2022-09-25T16:04:08.749Z,16.80
2022-09-25T16:06:42.889Z,16.80
2022-09-25T16:09:22.818Z,16.70
2022-09-25T16:11:51.674Z,16.60
2022-09-25T16:14:30.235Z,16.50
2022-09-25T16:17:00.044Z,16.50
2022-09-25T16:19:35.233Z,16.40
2022-09-25T16:22:23.255Z,16.20
2022-09-25T16:24:53.157Z,16.20
2022-09-25T16:27:28.753Z,16.00
2022-09-25T16:30:03.686Z,15.90
2022-09-25T16:32:32.927Z,15.80
2022-09-25T16:35:03.683Z,15.70
2022-09-25T16:37:36.008Z,15.60
2022-09-25T16:40:28.831Z,15.50
2022-09-25T16:42:58.768Z,15.40
2022-09-25T16:45:33.112Z,15.20
2022-09-25T16:48:23.862Z,15.20
2022-09-25T16:50:51.859Z,15.20
2022-09-25T16:53:19.852Z,15.20
2022-09-25T16:55:53.717Z,15.20
2022-09-25T16:58:22.950Z,15.10
2022-09-25T17:00:52.608Z,15.00
2022-09-25T17:03:21.796Z,15.00
2022-09-25T17:05:49.791Z,15.00
2022-09-25T17:08:21.566Z,14.90
2022-09-25T17:10:52.906Z,14.90
2022-09-25T17:13:30.763Z,14.80
2022-09-25T17:16:00.210Z,14.80
2022-09-25T17:18:28.292Z,14.90
2022-09-25T17:20:58.332Z,14.80
2022-09-25T17:23:27.558Z,14.80
2022-09-25T17:26:02.291Z,14.80
2022-09-25T17:28:32.878Z,14.80
2022-09-25T17:31:02.834Z,14.70
2022-09-25T17:33:32.698Z,14.70
2022-09-25T17:36:04.869Z,14.70
2022-09-25T17:38:34.068Z,14.70
2022-09-25T17:41:06.007Z,14.70
2022-09-25T17:43:34.555Z,14.70
2022-09-25T17:46:03.977Z,14.70
2022-09-25T17:48:33.412Z,14.70
2022-09-25T17:51:04.741Z,14.70
2022-09-25T17:53:34.707Z,14.70
2022-09-25T17:56:03.748Z,14.60
2022-09-25T17:58:32.761Z,14.50
2022-09-25T18:01:06.454Z,14.50
2022-09-25T18:03:34.525Z,14.50
2022-09-25T18:06:02.501Z,14.50
2022-09-25T18:08:31.071Z,14.50
2022-09-25T18:10:59.635Z,14.50
2022-09-25T18:13:27.838Z,14.50
2022-09-25T18:16:00.987Z,14.50
2022-09-25T18:18:50.545Z,14.50
2022-09-25T18:21:36.601Z,14.50
2022-09-25T18:24:04.927Z,14.50
2022-09-25T18:26:33.015Z,14.50
2022-09-25T18:29:01.017Z,14.50
2022-09-25T18:31:29.401Z,14.50
2022-09-25T18:33:58.744Z,14.40
2022-09-25T18:36:26.803Z,14.50
2022-09-25T18:38:54.823Z,14.40
2022-09-25T18:41:23.027Z,14.40
2022-09-25T18:43:51.144Z,14.40
2022-09-25T18:46:19.197Z,14.40
2022-09-25T18:48:48.207Z,14.40
2022-09-25T18:51:17.968Z,14.30
2022-09-25T18:53:50.726Z,14.30
2022-09-25T18:56:20.600Z,14.40
2022-09-25T18:58:48.972Z,14.40
2022-09-25T19:01:17.053Z,14.40
2022-09-25T19:03:50.430Z,14.40
2022-09-25T19:06:21.122Z,14.40
2022-09-25T19:08:54.076Z,14.30
2022-09-25T19:11:22.395Z,14.40
2022-09-25T19:13:50.759Z,14.30
2022-09-25T19:16:20.181Z,14.30
2022-09-25T19:18:50.110Z,14.30
2022-09-25T19:21:22.425Z,14.30
2022-09-25T19:23:51.336Z,14.30
2022-09-25T19:26:22.271Z,14.30
2022-09-25T19:28:50.429Z,14.40
2022-09-25T19:31:21.116Z,14.30
2022-09-25T19:33:49.617Z,14.20
2022-09-25T19:36:21.781Z,14.30
2022-09-25T19:38:49.780Z,14.20
2022-09-25T19:41:20.380Z,14.20
2022-09-25T19:43:48.550Z,14.20
2022-09-25T19:46:18.152Z,14.10
2022-09-25T19:48:48.433Z,14.10
2022-09-25T19:51:18.792Z,14.10
2022-09-25T19:53:48.847Z,14.10
2022-09-25T19:56:19.090Z,14.10
2022-09-25T19:58:49.632Z,14.10
2022-09-25T20:01:21.024Z,14.10
2022-09-25T20:03:49.664Z,14.00
2022-09-25T20:06:17.756Z,14.00
2022-09-25T20:08:47.673Z,14.00
2022-09-25T20:11:18.514Z,14.00
2022-09-25T20:13:48.439Z,14.00
2022-09-25T20:16:18.845Z,14.00
2022-09-25T20:18:50.088Z,14.00
2022-09-25T20:21:21.297Z,14.00
2022-09-25T20:23:52.834Z,14.00
2022-09-25T20:26:23.102Z,13.90
2022-09-25T20:28:54.882Z,14.00
2022-09-25T20:31:23.269Z,14.00
2022-09-25T20:33:51.513Z,14.00
2022-09-25T20:36:20.228Z,13.90
2022-09-25T20:38:52.730Z,14.00
2022-09-25T20:41:22.193Z,13.90
2022-09-25T20:43:52.597Z,13.90
2022-09-25T20:46:21.956Z,13.90
2022-09-25T20:48:52.605Z,13.90
2022-09-25T20:51:27.262Z,13.90
2022-09-25T20:53:59.397Z,13.80
2022-09-25T20:56:29.136Z,13.80
2022-09-25T20:58:58.939Z,13.70
2022-09-25T21:01:31.308Z,13.70
2022-09-25T21:04:02.350Z,13.70
2022-09-25T21:06:33.919Z,13.60
2022-09-25T21:09:07.610Z,13.60
2022-09-25T21:11:37.380Z,13.60
2022-09-25T21:14:05.530Z,13.60
2022-09-25T21:16:34.927Z,13.60
2022-09-25T21:19:05.055Z,13.60
2022-09-25T21:21:34.715Z,13.60
2022-09-25T21:24:04.395Z,13.60
2022-09-25T21:26:33.995Z,13.50
2022-09-25T21:29:05.739Z,13.50
2022-09-25T21:31:37.564Z,13.50
2022-09-25T21:34:08.382Z,13.40
2022-09-25T21:36:36.897Z,13.40
2022-09-25T21:39:07.377Z,13.30
2022-09-25T21:41:36.488Z,13.20
2022-09-25T21:44:07.829Z,13.20
2022-09-25T21:46:36.397Z,13.10
2022-09-25T21:49:07.693Z,13.10
2022-09-25T21:51:38.666Z,13.10
2022-09-25T21:54:09.979Z,13.10
2022-09-25T21:56:37.991Z,13.00
2022-09-25T21:59:09.109Z,13.00
2022-09-25T22:01:39.963Z,13.00
2022-09-25T22:04:12.901Z,13.00
2022-09-25T22:06:44.351Z,13.00
2022-09-25T22:09:17.134Z,12.90
2022-09-25T22:11:47.768Z,13.00
2022-09-25T22:14:16.838Z,13.00
2022-09-25T22:16:49.192Z,13.00
2022-09-25T22:19:21.920Z,13.00
2022-09-25T22:21:53.349Z,13.00
2022-09-25T22:24:23.405Z,13.00
2022-09-25T22:26:53.435Z,13.00
2022-09-25T22:29:22.139Z,13.00
2022-09-25T22:31:50.559Z,12.90
2022-09-25T22:34:22.566Z,12.90
2022-09-25T22:36:56.250Z,12.90
2022-09-25T22:39:28.862Z,12.90
2022-09-25T22:41:57.506Z,12.90
2022-09-25T22:44:26.536Z,12.90
2022-09-25T22:46:54.667Z,12.80
2022-09-25T22:49:22.876Z,12.80
2022-09-25T22:51:50.916Z,12.70
2022-09-25T22:54:19.691Z,12.80
2022-09-25T22:56:49.015Z,12.80
2022-09-25T22:59:18.795Z,12.80
2022-09-25T23:01:50.023Z,12.80
2022-09-25T23:04:21.551Z,12.70
2022-09-25T23:06:50.393Z,12.70
2022-09-25T23:09:21.715Z,12.70
2022-09-25T23:11:51.410Z,12.70
2022-09-25T23:14:22.467Z,12.70
2022-09-25T23:16:52.731Z,12.70
2022-09-25T23:19:22.453Z,12.70
2022-09-25T23:21:52.864Z,12.60
2022-09-25T23:24:22.952Z,12.60
2022-09-25T23:26:52.720Z,12.60
2022-09-25T23:29:23.392Z,12.60
2022-09-25T23:31:52.023Z,12.60
2022-09-25T23:34:20.674Z,12.60
2022-09-25T23:36:48.917Z,12.70
2022-09-25T23:39:19.875Z,12.60
2022-09-25T23:41:48.787Z,12.60
2022-09-25T23:44:18.449Z,12.60
2022-09-25T23:46:46.495Z,12.60
2022-09-25T23:49:15.133Z,12.60
2022-09-25T23:51:43.387Z,12.60
2022-09-25T23:54:12.124Z,12.60
2022-09-25T23:56:41.244Z,12.60
2022-09-25T23:59:12.491Z,12.60
